createdAt,value
2019-03-06T00:02:22.145Z,7.75
2019-03-06T00:04:48.469Z,7.90
2019-03-06T00:07:14.761Z,8.00
2019-03-06T00:09:41.072Z,8.05
2019-03-06T00:12:07.489Z,8.08
2019-03-06T00:14:33.808Z,8.04
2019-03-06T00:17:00.132Z,8.01
2019-03-06T00:19:26.457Z,8.04
2019-03-06T00:21:52.771Z,8.06
2019-03-06T00:24:19.087Z,8.11
2019-03-06T00:26:45.393Z,8.19
2019-03-06T00:29:11.719Z,8.27
2019-03-06T00:31:38.032Z,8.28
2019-03-06T00:34:04.353Z,8.24
2019-03-06T00:36:30.677Z,8.24
2019-03-06T00:38:57.028Z,8.34
2019-03-06T00:41:23.352Z,8.18
2019-03-06T00:43:49.660Z,8.04
2019-03-06T00:46:15.987Z,7.93
2019-03-06T00:48:42.301Z,8.00
2019-03-06T00:51:08.621Z,8.02
2019-03-06T00:53:34.943Z,7.95
2019-03-06T00:56:01.261Z,7.81
2019-03-06T00:58:27.568Z,7.64
2019-03-06T01:00:53.888Z,7.55
2019-03-06T01:03:20.198Z,7.44
2019-03-06T01:05:46.513Z,7.39
2019-03-06T01:08:12.826Z,7.43
2019-03-06T01:10:39.144Z,7.47
2019-03-06T01:13:05.453Z,7.56
2019-03-06T01:15:31.764Z,7.50
2019-03-06T01:17:58.078Z,7.39
2019-03-06T01:20:24.388Z,7.22
2019-03-06T01:22:50.703Z,7.13
2019-03-06T01:25:17.017Z,7.17
2019-03-06T01:27:43.326Z,7.22
2019-03-06T01:30:09.633Z,7.31
2019-03-06T01:32:35.950Z,7.35
2019-03-06T01:35:02.263Z,7.39
2019-03-06T01:37:28.663Z,7.38
2019-03-06T01:39:54.973Z,7.39
2019-03-06T01:42:21.302Z,7.31
2019-03-06T01:44:47.612Z,7.18
2019-03-06T01:47:13.952Z,7.10
2019-03-06T01:49:40.231Z,7.16
2019-03-06T01:52:06.545Z,7.13
2019-03-06T01:54:32.858Z,7.26
2019-03-06T01:56:59.164Z,7.22
2019-03-06T01:59:25.491Z,7.25
2019-03-06T02:01:51.790Z,7.11
2019-03-06T02:04:18.120Z,7.01
2019-03-06T02:06:44.431Z,7.00
2019-03-06T02:09:10.747Z,7.06
2019-03-06T02:11:37.059Z,7.11
2019-03-06T02:14:03.371Z,7.03
2019-03-06T02:16:29.676Z,7.12
2019-03-06T02:18:55.993Z,7.21
2019-03-06T02:21:22.338Z,7.29
2019-03-06T02:23:48.655Z,7.34
2019-03-06T02:26:14.957Z,7.30
2019-03-06T02:28:41.266Z,7.28
2019-03-06T02:31:07.571Z,7.03
2019-03-06T02:33:33.883Z,7.07
2019-03-06T02:36:00.186Z,7.14
2019-03-06T02:38:26.507Z,7.06
2019-03-06T02:40:52.821Z,7.05
2019-03-06T02:43:19.129Z,6.88
2019-03-06T02:45:45.436Z,6.70
2019-03-06T02:48:11.748Z,6.75
2019-03-06T02:50:38.053Z,7.41
2019-03-06T02:53:04.364Z,8.17
2019-03-06T02:55:30.676Z,8.44
2019-03-06T02:57:56.984Z,8.47
2019-03-06T03:00:23.312Z,8.36
2019-03-06T03:02:49.620Z,8.51
2019-03-06T03:05:15.925Z,9.11
2019-03-06T03:07:42.253Z,9.24
2019-03-06T03:10:08.572Z,9.26
2019-03-06T03:12:34.871Z,9.33
2019-03-06T03:15:01.187Z,9.28
2019-03-06T03:17:27.502Z,9.10
2019-03-06T03:19:53.814Z,8.48
2019-03-06T03:22:20.160Z,8.58
2019-03-06T03:24:46.456Z,8.59
2019-03-06T03:27:12.754Z,8.92
2019-03-06T03:29:39.077Z,8.97
2019-03-06T03:32:05.407Z,9.16
2019-03-06T03:34:31.703Z,9.42
2019-03-06T03:36:58.005Z,9.59
2019-03-06T03:39:24.312Z,9.73
2019-03-06T03:41:50.621Z,9.83
2019-03-06T03:44:16.961Z,9.14
2019-03-06T03:46:43.273Z,8.79
2019-03-06T03:49:09.573Z,9.01
2019-03-06T03:51:35.921Z,9.11
2019-03-06T03:54:02.267Z,8.68
2019-03-06T03:56:28.573Z,8.99
2019-03-06T03:58:54.885Z,9.03
2019-03-06T04:01:21.185Z,9.08
2019-03-06T04:03:47.509Z,8.59
2019-03-06T04:06:13.827Z,7.62
2019-03-06T04:08:40.130Z,7.69
2019-03-06T04:11:06.443Z,7.93
2019-03-06T04:13:32.752Z,7.51
2019-03-06T04:15:59.060Z,7.29
2019-03-06T04:18:25.365Z,7.11
2019-03-06T04:20:51.686Z,7.63
2019-03-06T04:23:17.989Z,7.89
2019-03-06T04:25:44.289Z,7.88
2019-03-06T04:28:10.597Z,7.78
2019-03-06T04:30:36.941Z,8.08
2019-03-06T04:33:03.211Z,8.14
2019-03-06T04:35:29.520Z,7.89
2019-03-06T04:37:55.819Z,8.06
2019-03-06T04:40:22.128Z,8.55
2019-03-06T04:42:48.436Z,8.71
2019-03-06T04:45:14.742Z,8.85
2019-03-06T04:47:41.068Z,8.45
2019-03-06T04:50:07.371Z,8.03
2019-03-06T04:52:33.679Z,7.31
2019-03-06T04:54:59.999Z,7.12
2019-03-06T04:57:26.311Z,7.47
2019-03-06T04:59:52.617Z,7.35
2019-03-06T05:02:18.932Z,7.79
2019-03-06T05:04:45.242Z,7.72
2019-03-06T05:07:11.560Z,7.62
2019-03-06T05:09:37.876Z,7.54
2019-03-06T05:12:04.189Z,7.77
2019-03-06T05:14:30.490Z,7.93
2019-03-06T05:16:56.805Z,7.74
2019-03-06T05:19:23.122Z,7.23
2019-03-06T05:21:49.455Z,7.46
2019-03-06T05:24:15.761Z,7.87
2019-03-06T05:26:42.072Z,8.20
2019-03-06T05:29:08.381Z,8.39
2019-03-06T05:31:34.688Z,8.65
2019-03-06T05:34:00.996Z,8.68
2019-03-06T05:36:27.303Z,8.61
2019-03-06T05:38:53.622Z,8.20
2019-03-06T05:41:19.931Z,7.99
2019-03-06T05:43:46.256Z,7.86
2019-03-06T05:46:12.565Z,7.80
2019-03-06T05:48:38.885Z,7.87
2019-03-06T05:51:05.199Z,8.08
2019-03-06T05:53:31.506Z,7.74
2019-03-06T05:55:57.821Z,7.78
2019-03-06T05:58:24.126Z,8.10
2019-03-06T06:00:50.442Z,8.49
2019-03-06T06:03:16.757Z,8.57
2019-03-06T06:05:43.071Z,8.74
2019-03-06T06:08:09.374Z,8.79
2019-03-06T06:10:35.685Z,8.49
2019-03-06T06:13:01.988Z,8.50
2019-03-06T06:15:28.305Z,8.20
2019-03-06T06:17:54.609Z,7.93
2019-03-06T06:20:20.925Z,8.56
2019-03-06T06:22:47.230Z,9.15
2019-03-06T06:25:13.556Z,9.33
2019-03-06T06:27:39.859Z,9.17
2019-03-06T06:30:06.169Z,9.25
2019-03-06T06:32:33.023Z,9.28
2019-03-06T06:34:58.883Z,9.33
2019-03-06T06:37:25.175Z,9.53
2019-03-06T06:39:51.488Z,9.40
2019-03-06T06:42:17.821Z,9.44
2019-03-06T06:44:44.132Z,9.98
2019-03-06T06:47:10.448Z,10.33
2019-03-06T06:49:36.759Z,10.86
2019-03-06T06:52:03.087Z,10.88
2019-03-06T06:54:29.415Z,10.55
2019-03-06T06:56:55.720Z,10.26
2019-03-06T06:59:22.026Z,10.31
2019-03-06T07:01:48.362Z,10.27
2019-03-06T07:04:14.672Z,10.48
2019-03-06T07:06:40.994Z,10.61
2019-03-06T07:09:07.383Z,10.75
2019-03-06T07:11:33.728Z,10.92
2019-03-06T07:14:00.015Z,11.17
2019-03-06T07:16:26.369Z,11.07
2019-03-06T07:18:52.682Z,10.87
2019-03-06T07:21:19.039Z,10.85
2019-03-06T07:23:45.367Z,10.66
2019-03-06T07:26:11.691Z,10.16
2019-03-06T07:28:38.345Z,10.14
2019-03-06T07:31:04.798Z,10.09
2019-03-06T07:33:31.116Z,9.64
2019-03-06T07:35:57.432Z,9.60
2019-03-06T07:38:23.744Z,9.64
2019-03-06T07:40:50.077Z,9.60
2019-03-06T07:43:16.392Z,9.58
2019-03-06T07:45:43.033Z,9.78
2019-03-06T07:48:09.391Z,9.91
2019-03-06T07:50:35.702Z,10.44
2019-03-06T07:53:02.078Z,10.54
2019-03-06T07:55:28.385Z,10.49
2019-03-06T07:57:54.705Z,10.46
2019-03-06T08:00:21.008Z,10.62
2019-03-06T08:02:47.382Z,10.95
2019-03-06T08:05:13.709Z,10.85
2019-03-06T08:07:40.068Z,10.94
2019-03-06T08:10:06.378Z,10.89
2019-03-06T08:12:32.710Z,11.08
2019-03-06T08:14:59.101Z,11.26
2019-03-06T08:17:25.409Z,11.26
2019-03-06T08:19:51.728Z,11.15
2019-03-06T08:22:18.033Z,11.31
2019-03-06T08:24:44.350Z,11.16
2019-03-06T08:27:10.665Z,11.02
2019-03-06T08:29:44.150Z,11.04
2019-03-06T08:32:10.446Z,11.79
2019-03-06T08:34:36.777Z,11.92
2019-03-06T08:37:03.088Z,12.05
2019-03-06T08:39:29.405Z,12.05
2019-03-06T08:41:55.717Z,11.54
2019-03-06T08:44:22.026Z,12.03
2019-03-06T08:46:48.329Z,12.39
2019-03-06T08:49:14.671Z,12.13
2019-03-06T08:51:40.988Z,12.23
2019-03-06T08:54:07.293Z,12.23
2019-03-06T08:56:33.609Z,12.32
2019-03-06T08:58:59.971Z,12.07
2019-03-06T09:01:26.294Z,11.80
2019-03-06T09:03:52.632Z,11.64
2019-03-06T09:06:18.948Z,11.53
2019-03-06T09:08:45.324Z,11.33
2019-03-06T09:11:11.660Z,11.24
2019-03-06T09:13:37.967Z,11.19
2019-03-06T09:16:04.272Z,11.26
2019-03-06T09:18:30.606Z,11.50
2019-03-06T09:20:56.935Z,12.35
2019-03-06T09:23:23.679Z,12.52
2019-03-06T09:25:49.601Z,12.30
2019-03-06T09:31:01.736Z,12.49
2019-03-06T09:33:28.097Z,12.34
2019-03-06T09:35:54.516Z,12.05
2019-03-06T09:38:20.882Z,11.89
2019-03-06T09:40:47.170Z,11.96
2019-03-06T09:43:13.489Z,12.15
2019-03-06T09:45:40.142Z,12.23
2019-03-06T09:48:06.559Z,12.18
2019-03-06T09:50:32.873Z,12.29
2019-03-06T09:52:59.254Z,12.56
2019-03-06T09:55:25.597Z,12.52
2019-03-06T09:57:51.948Z,12.40
2019-03-06T10:00:18.414Z,12.34
2019-03-06T10:02:44.723Z,12.64
2019-03-06T10:05:11.031Z,13.07
2019-03-06T10:07:37.336Z,14.23
2019-03-06T10:10:03.683Z,15.35
2019-03-06T10:12:29.987Z,16.04
2019-03-06T10:14:56.287Z,16.22
2019-03-06T10:17:22.600Z,16.71
2019-03-06T10:19:48.908Z,17.36
2019-03-06T10:22:15.215Z,18.05
2019-03-06T10:24:41.531Z,18.20
2019-03-06T10:27:07.844Z,18.66
2019-03-06T10:29:34.147Z,18.94
2019-03-06T10:32:00.471Z,19.34
2019-03-06T10:34:26.791Z,19.46
2019-03-06T10:36:53.120Z,19.90
2019-03-06T10:39:19.424Z,19.56
2019-03-06T10:41:45.737Z,19.40
2019-03-06T10:44:12.055Z,19.98
2019-03-06T10:46:38.367Z,19.78
2019-03-06T10:49:04.679Z,19.90
2019-03-06T10:51:31.185Z,20.13
2019-03-06T10:53:57.292Z,20.14
2019-03-06T10:56:23.605Z,20.39
2019-03-06T10:58:49.913Z,20.42
2019-03-06T11:01:16.219Z,20.84
2019-03-06T11:03:42.532Z,20.97
2019-03-06T11:06:08.848Z,20.95
2019-03-06T11:08:35.170Z,20.74
2019-03-06T11:11:01.471Z,20.50
2019-03-06T11:13:27.784Z,20.01
2019-03-06T11:15:55.989Z,19.30
2019-03-06T11:18:20.417Z,19.21
2019-03-06T11:20:46.727Z,18.66
2019-03-06T11:23:13.041Z,19.18
2019-03-06T11:25:39.376Z,19.41
2019-03-06T11:28:05.676Z,19.84
2019-03-06T11:30:31.983Z,20.25
2019-03-06T11:32:58.301Z,20.12
2019-03-06T11:35:24.626Z,20.30
2019-03-06T11:37:50.941Z,20.53
2019-03-06T11:40:17.274Z,21.08
2019-03-06T11:42:43.579Z,21.13
2019-03-06T11:45:09.884Z,21.04
2019-03-06T11:47:36.218Z,20.88
2019-03-06T11:50:02.527Z,20.75
2019-03-06T11:52:28.838Z,19.70
2019-03-06T11:54:55.794Z,18.61
2019-03-06T11:57:22.098Z,17.71
2019-03-06T11:59:48.410Z,17.60
2019-03-06T12:02:14.725Z,17.66
2019-03-06T12:04:41.039Z,18.86
2019-03-06T12:07:07.349Z,19.52
2019-03-06T12:09:33.673Z,19.80
2019-03-06T12:11:59.984Z,20.04
2019-03-06T12:14:26.295Z,19.60
2019-03-06T12:16:52.684Z,19.38
2019-03-06T12:19:18.991Z,19.17
2019-03-06T12:21:45.301Z,19.42
2019-03-06T12:24:13.113Z,19.58
2019-03-06T12:26:37.920Z,19.47
2019-03-06T12:29:04.265Z,19.56
2019-03-06T12:31:30.600Z,19.56
2019-03-06T12:33:56.911Z,19.83
2019-03-06T12:36:23.220Z,20.10
2019-03-06T12:38:49.529Z,20.29
2019-03-06T12:41:15.839Z,19.91
2019-03-06T12:43:42.168Z,20.00
2019-03-06T12:46:08.473Z,19.96
2019-03-06T12:48:34.800Z,20.37
2019-03-06T12:51:01.114Z,20.03
2019-03-06T12:53:27.415Z,20.05
2019-03-06T12:55:53.728Z,20.17
2019-03-06T12:58:20.036Z,20.23
2019-03-06T13:00:46.395Z,20.14
2019-03-06T13:03:12.699Z,20.20
2019-03-06T13:05:39.033Z,20.25
2019-03-06T13:08:05.337Z,20.19
2019-03-06T13:10:31.676Z,19.90
2019-03-06T13:12:58.051Z,19.37
2019-03-06T13:15:24.306Z,19.42
2019-03-06T13:17:50.621Z,19.45
2019-03-06T13:20:16.929Z,19.50
2019-03-06T13:22:43.239Z,19.07
2019-03-06T13:25:09.555Z,18.85
2019-03-06T13:27:35.881Z,18.57
2019-03-06T13:30:02.192Z,18.28
2019-03-06T13:32:28.501Z,17.95
2019-03-06T13:34:54.819Z,17.69
2019-03-06T13:37:21.125Z,17.51
2019-03-06T13:39:47.437Z,17.48
2019-03-06T13:42:13.751Z,17.36
2019-03-06T13:44:40.075Z,17.45
2019-03-06T13:47:06.384Z,17.35
2019-03-06T13:49:32.712Z,17.29
2019-03-06T13:51:59.056Z,17.35
2019-03-06T13:54:25.331Z,17.28
2019-03-06T13:56:51.907Z,17.32
2019-03-06T13:59:17.977Z,17.19
2019-03-06T14:01:44.292Z,17.17
2019-03-06T14:04:10.638Z,17.04
2019-03-06T14:06:36.950Z,17.04
2019-03-06T14:09:03.292Z,17.12
2019-03-06T14:11:29.601Z,17.09
2019-03-06T14:13:55.914Z,17.09
2019-03-06T14:16:22.227Z,16.95
2019-03-06T14:18:48.574Z,16.90
2019-03-06T14:21:14.893Z,16.90
2019-03-06T14:23:41.195Z,16.85
2019-03-06T14:26:07.561Z,16.93
2019-03-06T14:28:33.913Z,16.92
2019-03-06T14:31:00.185Z,16.92
2019-03-06T14:33:26.488Z,16.77
2019-03-06T14:35:52.832Z,16.68
2019-03-06T14:38:21.232Z,16.67
2019-03-06T14:40:45.811Z,16.65
2019-03-06T14:43:12.289Z,16.66
2019-03-06T14:45:38.601Z,16.67
2019-03-06T14:48:04.916Z,16.68
2019-03-06T14:50:31.241Z,16.59
2019-03-06T14:52:57.549Z,16.47
2019-03-06T14:55:23.861Z,16.33
2019-03-06T14:57:50.193Z,16.25
2019-03-06T15:00:16.505Z,16.22
2019-03-06T15:02:42.897Z,16.24
2019-03-06T15:05:09.213Z,16.24
2019-03-06T15:07:35.524Z,16.22
2019-03-06T15:10:01.842Z,16.14
2019-03-06T15:12:28.204Z,16.03
2019-03-06T15:14:54.535Z,15.99
2019-03-06T15:17:20.845Z,15.98
2019-03-06T15:19:47.151Z,15.99
2019-03-06T15:22:13.477Z,16.00
2019-03-06T15:24:41.661Z,15.97
2019-03-06T15:27:06.098Z,15.95
2019-03-06T15:29:32.485Z,15.87
2019-03-06T15:31:58.796Z,15.86
2019-03-06T15:34:25.106Z,15.77
2019-03-06T15:36:51.417Z,15.71
2019-03-06T15:39:18.581Z,15.70
2019-03-06T15:41:44.053Z,15.64
2019-03-06T15:44:10.399Z,15.53
2019-03-06T15:46:36.722Z,15.47
2019-03-06T15:49:03.033Z,15.37
2019-03-06T15:51:29.371Z,15.30
2019-03-06T15:53:55.676Z,15.22
2019-03-06T15:56:21.985Z,15.17
2019-03-06T15:58:48.301Z,15.14
2019-03-06T16:01:14.625Z,15.13
2019-03-06T16:03:40.937Z,15.06
2019-03-06T16:06:07.248Z,15.00
2019-03-06T16:08:33.566Z,14.92
2019-03-06T16:10:59.878Z,14.85
2019-03-06T16:13:26.194Z,14.78
2019-03-06T16:15:52.507Z,14.73
2019-03-06T16:18:18.843Z,14.67
2019-03-06T16:20:45.149Z,14.59
2019-03-06T16:23:11.459Z,14.51
2019-03-06T16:25:40.001Z,14.44
2019-03-06T16:28:04.096Z,14.38
2019-03-06T16:30:30.409Z,14.33
2019-03-06T16:32:56.715Z,14.23
2019-03-06T16:35:23.045Z,14.14
2019-03-06T16:37:49.349Z,14.08
2019-03-06T16:40:15.654Z,13.94
2019-03-06T16:42:41.967Z,13.87
2019-03-06T16:45:08.278Z,13.87
2019-03-06T16:47:34.637Z,13.84
2019-03-06T16:50:00.909Z,13.72
2019-03-06T16:52:27.278Z,13.74
2019-03-06T16:54:53.597Z,13.62
2019-03-06T16:57:19.914Z,13.55
2019-03-06T16:59:46.512Z,13.55
2019-03-06T17:02:12.861Z,13.41
2019-03-06T17:04:39.172Z,13.31
2019-03-06T17:07:05.487Z,13.21
2019-03-06T17:09:31.877Z,13.19
2019-03-06T17:11:58.192Z,13.16
2019-03-06T17:14:24.509Z,13.09
2019-03-06T17:16:50.841Z,13.02
2019-03-06T17:19:17.152Z,12.96
2019-03-06T17:21:43.472Z,12.93
2019-03-06T17:24:09.788Z,12.89
2019-03-06T17:26:36.157Z,12.80
2019-03-06T17:29:02.464Z,12.69
2019-03-06T17:31:28.770Z,12.68
2019-03-06T17:33:55.120Z,12.69
2019-03-06T17:36:21.429Z,12.80
2019-03-06T17:38:47.749Z,12.81
2019-03-06T17:41:14.062Z,12.80
2019-03-06T17:43:40.386Z,12.79
2019-03-06T17:46:06.693Z,12.74
2019-03-06T17:48:33.006Z,12.64
2019-03-06T17:51:00.785Z,12.52
2019-03-06T17:53:27.331Z,12.41
2019-03-06T17:55:51.956Z,12.35
2019-03-06T17:58:18.277Z,12.24
2019-03-06T18:00:44.613Z,12.18
2019-03-06T18:03:10.963Z,12.11
2019-03-06T18:05:37.273Z,12.10
2019-03-06T18:08:03.652Z,12.12
2019-03-06T18:10:29.968Z,12.14
2019-03-06T18:12:56.284Z,12.02
2019-03-06T18:15:22.674Z,11.93
2019-03-06T18:17:48.980Z,11.93
2019-03-06T18:20:15.295Z,11.92
2019-03-06T18:22:41.600Z,11.97
2019-03-06T18:25:07.944Z,11.98
2019-03-06T18:27:34.258Z,11.95
2019-03-06T18:30:00.584Z,11.87
2019-03-06T18:32:26.943Z,11.78
2019-03-06T18:34:53.337Z,11.69
2019-03-06T18:37:19.622Z,11.63
2019-03-06T18:39:45.935Z,11.60
2019-03-06T18:42:12.263Z,11.58
2019-03-06T18:44:38.579Z,11.51
2019-03-06T18:47:04.915Z,11.54
2019-03-06T18:49:31.277Z,11.45
2019-03-06T18:51:57.588Z,11.33
2019-03-06T18:54:23.907Z,11.40
2019-03-06T18:56:50.227Z,11.40
2019-03-06T18:59:16.563Z,11.25
2019-03-06T19:01:43.169Z,11.04
2019-03-06T19:04:09.476Z,10.80
2019-03-06T19:06:36.170Z,10.64
2019-03-06T19:09:02.590Z,10.58
2019-03-06T19:11:28.948Z,10.64
2019-03-06T19:13:55.262Z,10.71
2019-03-06T19:16:23.137Z,10.72
2019-03-06T19:18:49.422Z,10.62
2019-03-06T19:21:15.739Z,10.74
2019-03-06T19:23:42.073Z,11.16
2019-03-06T19:26:08.382Z,11.14
2019-03-06T19:28:34.695Z,11.25
2019-03-06T19:31:01.012Z,10.77
2019-03-06T19:33:27.330Z,10.67
2019-03-06T19:35:53.694Z,10.63
2019-03-06T19:38:20.011Z,10.61
2019-03-06T19:40:46.336Z,10.65
2019-03-06T19:43:12.648Z,10.62
2019-03-06T19:45:39.004Z,10.33
2019-03-06T19:48:05.317Z,10.08
2019-03-06T19:50:31.635Z,9.81
2019-03-06T19:52:58.116Z,9.72
2019-03-06T19:55:24.386Z,9.67
2019-03-06T19:57:50.695Z,9.65
2019-03-06T20:00:16.998Z,9.44
2019-03-06T20:02:43.615Z,9.34
2019-03-06T20:05:09.977Z,9.76
2019-03-06T20:07:36.287Z,9.78
2019-03-06T20:10:04.385Z,9.99
2019-03-06T20:12:28.904Z,10.10
2019-03-06T20:14:55.240Z,9.97
2019-03-06T20:17:21.567Z,9.82
2019-03-06T20:19:50.611Z,9.80
2019-03-06T20:22:16.945Z,9.66
2019-03-06T20:24:43.248Z,9.44
2019-03-06T20:27:09.570Z,9.25
2019-03-06T20:29:35.884Z,9.07
2019-03-06T20:32:02.219Z,8.91
2019-03-06T20:34:28.521Z,8.83
2019-03-06T20:36:54.840Z,8.79
2019-03-06T20:39:21.146Z,8.59
2019-03-06T20:41:47.461Z,8.47
2019-03-06T20:44:13.866Z,8.41
2019-03-06T20:46:40.176Z,8.38
2019-03-06T20:49:06.547Z,8.49
2019-03-06T20:51:32.867Z,8.52
2019-03-06T20:53:59.179Z,8.48
2019-03-06T20:56:25.507Z,8.47
2019-03-06T20:58:51.831Z,8.48
2019-03-06T21:01:18.147Z,8.45
2019-03-06T21:03:44.469Z,8.40
2019-03-06T21:06:10.775Z,8.54
2019-03-06T21:08:39.879Z,8.58
2019-03-06T21:11:06.187Z,8.41
2019-03-06T21:13:34.921Z,8.37
2019-03-06T21:15:58.823Z,8.12
2019-03-06T21:18:27.162Z,7.94
2019-03-06T21:20:51.488Z,7.91
2019-03-06T21:23:17.772Z,7.89
2019-03-06T21:25:44.086Z,7.87
2019-03-06T21:28:10.399Z,7.94
2019-03-06T21:30:36.710Z,7.95
2019-03-06T21:33:03.022Z,7.86
2019-03-06T21:35:29.338Z,7.63
2019-03-06T21:37:55.646Z,7.56
2019-03-06T21:40:21.962Z,7.49
2019-03-06T21:42:48.270Z,7.50
2019-03-06T21:45:14.583Z,7.54
2019-03-06T21:47:40.893Z,7.63
2019-03-06T21:50:07.203Z,7.58
2019-03-06T21:52:33.518Z,7.61
2019-03-06T21:54:59.831Z,7.64
2019-03-06T21:57:26.148Z,7.47
2019-03-06T21:59:52.457Z,7.42
2019-03-06T22:02:18.767Z,7.46
2019-03-06T22:04:45.081Z,7.47
2019-03-06T22:07:11.391Z,7.43
2019-03-06T22:09:37.998Z,7.48
2019-03-06T22:12:04.310Z,7.34
2019-03-06T22:14:30.621Z,7.23
2019-03-06T22:17:00.085Z,6.99
2019-03-06T22:19:23.679Z,6.88
2019-03-06T22:21:49.995Z,6.65
2019-03-06T22:24:16.310Z,6.71
2019-03-06T22:26:42.638Z,6.75
2019-03-06T22:29:08.953Z,6.60
2019-03-06T22:31:35.262Z,6.61
2019-03-06T22:34:01.582Z,6.62
2019-03-06T22:36:27.885Z,6.53
2019-03-06T22:38:54.224Z,6.61
2019-03-06T22:41:20.534Z,6.59
2019-03-06T22:43:46.893Z,6.60
2019-03-06T22:46:13.233Z,6.69
2019-03-06T22:48:39.536Z,6.76
2019-03-06T22:51:05.894Z,6.77
2019-03-06T22:53:32.170Z,6.81
2019-03-06T22:55:58.492Z,6.89
2019-03-06T22:58:24.814Z,6.87
2019-03-06T23:00:51.130Z,6.85
2019-03-06T23:03:17.450Z,6.99
2019-03-06T23:05:43.878Z,6.94
2019-03-06T23:08:10.147Z,6.86
2019-03-06T23:10:36.488Z,6.85
2019-03-06T23:13:02.976Z,6.58
2019-03-06T23:15:29.343Z,6.56
2019-03-06T23:17:55.809Z,6.48
2019-03-06T23:20:22.104Z,6.51
2019-03-06T23:22:48.411Z,6.52
2019-03-06T23:25:14.740Z,6.48
2019-03-06T23:27:41.084Z,6.53
2019-03-06T23:30:07.491Z,6.62
2019-03-06T23:32:33.841Z,6.81
2019-03-06T23:35:02.082Z,6.76
2019-03-06T23:37:26.607Z,6.84
2019-03-06T23:39:53.052Z,6.96
2019-03-06T23:42:19.327Z,6.68
2019-03-06T23:44:45.655Z,6.54
2019-03-06T23:47:11.994Z,6.32
2019-03-06T23:49:38.295Z,6.50
2019-03-06T23:52:04.605Z,6.63
2019-03-06T23:54:31.059Z,6.46
2019-03-06T23:56:57.374Z,6.40
2019-03-06T23:59:23.684Z,6.25
